createdAt,value
2023-02-17T00:04:55.000Z,97573
2023-02-17T00:09:55.000Z,97568
2023-02-17T00:14:55.000Z,97572
2023-02-17T00:19:55.000Z,97561
2023-02-17T00:24:55.000Z,97565
2023-02-17T00:29:55.000Z,97560
2023-02-17T00:34:55.000Z,97572
2023-02-17T00:39:55.000Z,97568
2023-02-17T00:44:55.000Z,97574
2023-02-17T00:49:55.000Z,97578
2023-02-17T00:54:55.000Z,97581
2023-02-17T00:59:55.000Z,97597
2023-02-17T01:04:55.000Z,97584
2023-02-17T01:09:55.000Z,97578
2023-02-17T01:14:55.000Z,97582
2023-02-17T01:19:55.000Z,97585
2023-02-17T01:24:55.000Z,97591
2023-02-17T01:29:55.000Z,97591
2023-02-17T01:34:55.000Z,97601
2023-02-17T01:39:55.000Z,97571
2023-02-17T01:44:55.000Z,97561
2023-02-17T01:49:55.000Z,97568
2023-02-17T01:54:55.000Z,97572
2023-02-17T01:59:55.000Z,97570
2023-02-17T02:04:55.000Z,97568
2023-02-17T02:09:55.000Z,97562
2023-02-17T02:14:55.000Z,97564
2023-02-17T02:19:55.000Z,97560
2023-02-17T02:24:55.000Z,97559
2023-02-17T02:29:55.000Z,97545
2023-02-17T02:34:55.000Z,97554
2023-02-17T02:39:55.000Z,97551
2023-02-17T02:44:55.000Z,97569
2023-02-17T02:49:55.000Z,97568
2023-02-17T02:54:55.000Z,97560
2023-02-17T02:59:55.000Z,97558
2023-02-17T03:04:55.000Z,97554
2023-02-17T03:09:55.000Z,97543
2023-02-17T03:14:55.000Z,97554
2023-02-17T03:19:55.000Z,97550
2023-02-17T03:24:55.000Z,97539
2023-02-17T03:29:55.000Z,97544
2023-02-17T03:34:55.000Z,97536
2023-02-17T03:39:55.000Z,97520
2023-02-17T03:44:55.000Z,97531
2023-02-17T03:49:55.000Z,97539
2023-02-17T03:54:55.000Z,97551
2023-02-17T03:59:55.000Z,97545
2023-02-17T04:04:55.000Z,97545
2023-02-17T04:09:56.000Z,97542
2023-02-17T04:14:56.000Z,97547
2023-02-17T04:19:56.000Z,97547
2023-02-17T04:24:56.000Z,97546
2023-02-17T04:29:56.000Z,97562
2023-02-17T04:34:56.000Z,97558
2023-02-17T04:39:56.000Z,97559
2023-02-17T04:44:56.000Z,97562
2023-02-17T04:49:56.000Z,97552
2023-02-17T04:54:56.000Z,97551
2023-02-17T04:59:56.000Z,97545
2023-02-17T05:04:56.000Z,97534
2023-02-17T05:09:56.000Z,97536
2023-02-17T05:14:56.000Z,97532
2023-02-17T05:19:56.000Z,97532
2023-02-17T05:24:56.000Z,97521
2023-02-17T05:29:56.000Z,97522
2023-02-17T05:34:56.000Z,97518
2023-02-17T05:39:56.000Z,97514
2023-02-17T05:44:56.000Z,97515
2023-02-17T05:49:56.000Z,97519
2023-02-17T05:54:56.000Z,97532
2023-02-17T05:59:56.000Z,97535
2023-02-17T06:04:56.000Z,97532
2023-02-17T06:09:56.000Z,97528
2023-02-17T06:14:56.000Z,97529
2023-02-17T06:19:56.000Z,97530
2023-02-17T06:24:56.000Z,97528
2023-02-17T06:29:56.000Z,97535
2023-02-17T06:34:56.000Z,97538
2023-02-17T06:39:56.000Z,97551
2023-02-17T06:44:56.000Z,97557
2023-02-17T06:49:56.000Z,97571
2023-02-17T06:54:56.000Z,97577
2023-02-17T06:59:56.000Z,97585
2023-02-17T07:04:56.000Z,97573
2023-02-17T07:09:56.000Z,97580
2023-02-17T07:14:56.000Z,97577
2023-02-17T07:19:56.000Z,97577
2023-02-17T07:24:56.000Z,97591
2023-02-17T07:29:56.000Z,97597
2023-02-17T07:34:56.000Z,97598
2023-02-17T07:39:56.000Z,97597
2023-02-17T07:44:56.000Z,97613
2023-02-17T07:49:56.000Z,97603
2023-02-17T07:54:56.000Z,97614
2023-02-17T07:59:56.000Z,97624
2023-02-17T08:04:56.000Z,97624
2023-02-17T08:09:56.000Z,97622
2023-02-17T08:14:56.000Z,97618
2023-02-17T08:19:56.000Z,97621
2023-02-17T08:24:56.000Z,97639
2023-02-17T08:29:56.000Z,97646
2023-02-17T08:34:56.000Z,97640
2023-02-17T08:39:56.000Z,97650
2023-02-17T08:44:56.000Z,97664
2023-02-17T08:49:56.000Z,97664
2023-02-17T08:54:56.000Z,97659
2023-02-17T08:59:56.000Z,97658
2023-02-17T09:04:56.000Z,97643
2023-02-17T09:09:56.000Z,97666
2023-02-17T09:14:56.000Z,97670
2023-02-17T09:19:56.000Z,97683
2023-02-17T09:24:56.000Z,97687
2023-02-17T09:29:56.000Z,97688
2023-02-17T09:34:56.000Z,97689
2023-02-17T09:39:56.000Z,97692
2023-02-17T09:44:56.000Z,97688
2023-02-17T09:49:56.000Z,97676
2023-02-17T09:54:56.000Z,97688
2023-02-17T09:59:56.000Z,97695
2023-02-17T10:04:56.000Z,97699
2023-02-17T10:09:56.000Z,97704
2023-02-17T10:14:56.000Z,97706
2023-02-17T10:19:56.000Z,97692
2023-02-17T10:24:56.000Z,97688
2023-02-17T10:29:56.000Z,97680
2023-02-17T10:34:56.000Z,97682
2023-02-17T10:39:56.000Z,97680
2023-02-17T10:44:56.000Z,97678
2023-02-17T10:49:56.000Z,97662
2023-02-17T10:54:56.000Z,97654
2023-02-17T10:59:56.000Z,97652
2023-02-17T11:04:56.000Z,97643
2023-02-17T11:09:56.000Z,97629
2023-02-17T11:14:56.000Z,97630
2023-02-17T11:19:56.000Z,97626
2023-02-17T11:24:56.000Z,97619
2023-02-17T11:29:56.000Z,97622
2023-02-17T11:34:56.000Z,97616
2023-02-17T11:39:56.000Z,97609
2023-02-17T11:44:56.000Z,97608
2023-02-17T11:49:56.000Z,97591
2023-02-17T11:54:56.000Z,97597
2023-02-17T11:59:56.000Z,97584
2023-02-17T12:04:56.000Z,97581
2023-02-17T12:09:56.000Z,97584
2023-02-17T12:14:56.000Z,97584
2023-02-17T12:19:56.000Z,97587
2023-02-17T12:24:56.000Z,97582
2023-02-17T12:29:56.000Z,97581
2023-02-17T12:34:56.000Z,97584
2023-02-17T12:39:56.000Z,97569
2023-02-17T12:44:56.000Z,97568
2023-02-17T12:49:56.000Z,97558
2023-02-17T12:54:56.000Z,97569
2023-02-17T12:59:56.000Z,97550
2023-02-17T13:04:56.000Z,97546
2023-02-17T13:09:56.000Z,97544
2023-02-17T13:14:56.000Z,97542
2023-02-17T13:19:56.000Z,97546
2023-02-17T13:24:56.000Z,97546
2023-02-17T13:29:56.000Z,97544
2023-02-17T13:34:56.000Z,97551
2023-02-17T13:39:56.000Z,97546
2023-02-17T13:44:56.000Z,97540
2023-02-17T13:49:56.000Z,97538
2023-02-17T13:54:56.000Z,97548
2023-02-17T13:59:56.000Z,97543
2023-02-17T14:04:56.000Z,97553
2023-02-17T14:09:56.000Z,97545
2023-02-17T14:14:56.000Z,97544
2023-02-17T14:19:56.000Z,97549
2023-02-17T14:24:56.000Z,97549
2023-02-17T14:29:56.000Z,97559
2023-02-17T14:34:56.000Z,97556
2023-02-17T14:39:56.000Z,97559
2023-02-17T14:44:56.000Z,97558
2023-02-17T14:49:56.000Z,97561
2023-02-17T14:54:56.000Z,97558
2023-02-17T14:59:56.000Z,97566
2023-02-17T15:04:56.000Z,97565
2023-02-17T15:09:56.000Z,97562
2023-02-17T15:14:56.000Z,97566
2023-02-17T15:19:56.000Z,97569
2023-02-17T15:24:56.000Z,97566
2023-02-17T15:29:56.000Z,97566
2023-02-17T15:34:56.000Z,97556
2023-02-17T15:39:56.000Z,97558
2023-02-17T15:44:56.000Z,97565
2023-02-17T15:49:56.000Z,97562
2023-02-17T15:54:56.000Z,97568
2023-02-17T15:59:56.000Z,97572
2023-02-17T16:04:56.000Z,97556
2023-02-17T16:09:56.000Z,97562
2023-02-17T16:14:56.000Z,97560
2023-02-17T16:19:56.000Z,97562
2023-02-17T16:24:56.000Z,97558
2023-02-17T16:29:56.000Z,97562
2023-02-17T16:34:56.000Z,97568
2023-02-17T16:39:56.000Z,97578
2023-02-17T16:44:56.000Z,97571
2023-02-17T16:49:56.000Z,97560
2023-02-17T16:54:56.000Z,97563
2023-02-17T16:59:56.000Z,97567
2023-02-17T17:04:56.000Z,97574
2023-02-17T17:09:56.000Z,97569
2023-02-17T17:14:56.000Z,97598
2023-02-17T17:19:56.000Z,97594
2023-02-17T17:24:56.000Z,97604
2023-02-17T17:29:56.000Z,97594
2023-02-17T17:34:56.000Z,97591
2023-02-17T17:39:56.000Z,97584
2023-02-17T17:44:56.000Z,97588
2023-02-17T17:49:56.000Z,97599
2023-02-17T17:54:56.000Z,97611
2023-02-17T17:59:56.000Z,97624
2023-02-17T18:04:56.000Z,97625
2023-02-17T18:09:56.000Z,97625
2023-02-17T18:14:56.000Z,97636
2023-02-17T18:19:56.000Z,97639
2023-02-17T18:24:56.000Z,97643
2023-02-17T18:29:56.000Z,97653
2023-02-17T18:34:56.000Z,97653
2023-02-17T18:39:56.000Z,97644
2023-02-17T18:44:56.000Z,97648
2023-02-17T18:49:56.000Z,97659
2023-02-17T18:54:56.000Z,97656
2023-02-17T18:59:56.000Z,97647
2023-02-17T19:04:56.000Z,97646
2023-02-17T19:09:56.000Z,97636
2023-02-17T19:14:56.000Z,97641
2023-02-17T19:19:56.000Z,97641
2023-02-17T19:25:11.000Z,97633
2023-02-17T19:29:56.000Z,97632
2023-02-17T19:34:56.000Z,97629
2023-02-17T19:39:56.000Z,97621
2023-02-17T19:44:56.000Z,97623
2023-02-17T19:49:56.000Z,97629
2023-02-17T19:54:56.000Z,97634
2023-02-17T19:59:56.000Z,97635
2023-02-17T20:04:56.000Z,97645
2023-02-17T20:09:56.000Z,97643
2023-02-17T20:14:56.000Z,97652
2023-02-17T20:19:56.000Z,97649
2023-02-17T20:24:56.000Z,97646
2023-02-17T20:29:56.000Z,97649
2023-02-17T20:34:56.000Z,97652
2023-02-17T20:39:56.000Z,97658
2023-02-17T20:44:56.000Z,97655
2023-02-17T20:49:56.000Z,97648
2023-02-17T20:54:56.000Z,97645
2023-02-17T20:59:56.000Z,97663
2023-02-17T21:04:56.000Z,97665
2023-02-17T21:09:56.000Z,97678
2023-02-17T21:14:56.000Z,97686
2023-02-17T21:19:56.000Z,97687
2023-02-17T21:24:56.000Z,97689
2023-02-17T21:29:56.000Z,97695
2023-02-17T21:34:56.000Z,97686
2023-02-17T21:39:56.000Z,97700
2023-02-17T21:44:56.000Z,97687
2023-02-17T21:49:56.000Z,97695
2023-02-17T21:54:56.000Z,97706
2023-02-17T21:59:56.000Z,97711
2023-02-17T22:04:56.000Z,97704
2023-02-17T22:09:56.000Z,97700
2023-02-17T22:14:56.000Z,97708
2023-02-17T22:19:56.000Z,97702
2023-02-17T22:24:56.000Z,97704
2023-02-17T22:29:56.000Z,97702
2023-02-17T22:34:56.000Z,97697
2023-02-17T22:39:56.000Z,97709
2023-02-17T22:44:56.000Z,97727
2023-02-17T22:49:56.000Z,97724
2023-02-17T22:54:56.000Z,97729
2023-02-17T22:59:56.000Z,97715
2023-02-17T23:04:56.000Z,97718
2023-02-17T23:09:56.000Z,97709
2023-02-17T23:14:56.000Z,97711
2023-02-17T23:19:56.000Z,97711
2023-02-17T23:24:56.000Z,97709
2023-02-17T23:29:56.000Z,97720
2023-02-17T23:35:00.000Z,97718
2023-02-17T23:40:00.000Z,97711
2023-02-17T23:45:00.000Z,97717
2023-02-17T23:50:00.000Z,97717
2023-02-17T23:55:00.000Z,97717
